Time;durP1;ratioP1;P1;durP2;ratioP2;P2;SDS_P1;SDS_P2;PMS_P1;PMS_P2;Temp;Humidity;BMP_temperature;BMP_pressure;BME280_temperature;BME280_humidity;BME280_pressure;Samples;Min_cycle;Max_cycle;Signal;HPM_P1;HPM_P2
2023/01/17 00:01:09;;;;;;;;;;;;;;;;;;4965419;28;19921;-64
2023/01/17 00:12:04;;;;;;;;;;;;;;;;;;4984213;28;19944;-62
2023/01/17 00:14:34;;;;;;;;;;;;;;;;;;4962394;28;19936;-62
2023/01/17 00:17:02;;;;;;;;;;;;;;;;;;4982206;28;20351;-62
2023/01/17 01:34:08;;;;;;;;;;;;;;;;;;4982201;28;20602;-64
2023/01/17 01:36:39;;;;;;;;;;;;;;;;;;4978839;28;20432;-64
2023/01/17 01:39:04;;;;;;;;;;;;;;;;;;4971390;28;19928;-63
2023/01/17 01:41:32;;;;;;;;;;;;;;;;;;4979307;28;20690;-64
2023/01/17 01:43:57;;;;;;;;;;;;;;;;;;4963474;28;19922;-63
2023/01/17 01:46:23;;;;;;;;;;;;;;;;;;4945475;28;20465;-62
2023/01/17 01:48:48;;;;;;;;;;;;;;;;;;4978573;28;19926;-64
2023/01/17 01:51:14;;;;;;;;;;;;;;;;;;4980257;28;20487;-64
2023/01/17 01:53:41;;;;;;;;;;;;;;;;;;4982681;28;19918;-64
2023/01/17 01:56:09;;;;;;;;;;;;;;;;;;4995983;28;19925;-63
2023/01/17 01:58:36;;;;;;;;;;;;;;;;;;4980502;28;20193;-63
2023/01/17 02:01:04;;;;;;;;;;;;;;;;;;4978816;28;19940;-64
2023/01/17 02:03:30;;;;;;;;;;;;;;;;;;4980765;28;19922;-64
2023/01/17 02:05:57;;;;;;;;;;;;;;;;;;4982938;28;20664;-64
2023/01/17 02:08:23;;;;;;;;;;;;;;;;;;4964307;28;19921;-64
2023/01/17 02:10:50;;;;;;;;;;;;;;;;;;4980759;28;20842;-64
2023/01/17 02:13:15;;;;;;;;;;;;;;;;;;4972319;28;19921;-63
2023/01/17 02:15:43;;;;;;;;;;;;;;;;;;4979097;28;20459;-64
2023/01/17 02:18:09;;;;;;;;;;;;;;;;;;4982250;28;19949;-63
2023/01/17 02:20:34;;;;;;;;;;;;;;;;;;4971699;28;19973;-65
2023/01/17 02:23:03;;;;;;;;;;;;;;;;;;4981652;28;19921;-64
2023/01/17 02:25:28;;;;;;;;;;;;;;;;;;4963375;28;19924;-64
2023/01/17 02:27:54;;;;;;;;;;;;;;;;;;4980656;28;19921;-64
2023/01/17 02:30:20;;;;;;;;;;;;;;;;;;4956127;28;20424;-63
2023/01/17 02:32:50;;;;;;;;;;;;;;;;;;4950933;28;20172;-63
2023/01/17 02:35:21;;;;;;;;;;;;;;;;;;4980553;28;20221;-64
2023/01/17 02:37:49;;;;;;;;;;;;;;;;;;4983075;28;19921;-63
2023/01/17 02:40:17;;;;;;;;;;;;;;;;;;4976710;28;19948;-64
2023/01/17 02:42:42;;;;;;;;;;;;;;;;;;4974492;28;20091;-63
2023/01/17 02:45:07;;;;;;;;;;;;;;;;;;4974105;28;20738;-63
2023/01/17 02:47:32;;;;;;;;;;;;;;;;;;4985001;28;20466;-64
2023/01/17 02:49:58;;;;;;;;;;;;;;;;;;4977284;28;19921;-64
2023/01/17 02:52:23;;;;;;;;;;;;;;;;;;4974500;28;19918;-63
2023/01/17 02:54:51;;;;;;;;;;;;;;;;;;4968269;28;20015;-64
2023/01/17 02:57:17;;;;;;;;;;;;;;;;;;4985391;28;20487;-63
2023/01/17 02:59:42;;;;;;;;;;;;;;;;;;4984180;28;20311;-64
2023/01/17 03:02:09;;;;;;;;;;;;;;;;;;4982182;28;20019;-63
2023/01/17 03:04:34;;;;;;;;;;;;;;;;;;5000432;28;20069;-64
2023/01/17 03:07:00;;;;;;;;;;;;;;;;;;4966345;28;19964;-63
2023/01/17 03:09:25;;;;;;;;;;;;;;;;;;4967907;28;21722;-64
2023/01/17 03:11:51;;;;;;;;;;;;;;;;;;4956197;28;20387;-64
2023/01/17 03:14:16;;;;;;;;;;;;;;;;;;4986917;28;19927;-64
2023/01/17 03:16:44;;;;;;;;;;;;;;;;;;4964197;28;19925;-65
2023/01/17 03:19:09;;;;;;;;;;;;;;;;;;4990794;28;20880;-64
2023/01/17 03:21:35;;;;;;;;;;;;;;;;;;4968113;28;20195;-64
2023/01/17 03:24:01;;;;;;;;;;;;;;;;;;4967233;28;20008;-63
2023/01/17 03:26:30;;;;;;;;;;;;;;;;;;4973365;28;20376;-64
2023/01/17 03:28:58;;;;;;;;;;;;;;;;;;4966682;28;19948;-65
2023/01/17 03:31:23;;;;;;;;;;;;;;;;;;4945553;28;19995;-65
2023/01/17 03:33:51;;;;;;;;;;;;;;;;;;4982870;28;20371;-64
2023/01/17 03:36:17;;;;;;;;;;;;;;;;;;4999083;28;20399;-64
2023/01/17 03:38:42;;;;;;;;;;;;;;;;;;4985631;28;19921;-65
2023/01/17 03:41:08;;;;;;;;;;;;;;;;;;4980570;28;20320;-64
2023/01/17 03:43:33;;;;;;;;;;;;;;;;;;4991645;28;19921;-64
2023/01/17 03:45:58;;;;;;;;;;;;;;;;;;4983180;28;20508;-64
2023/01/17 03:48:25;;;;;;;;;;;;;;;;;;4966230;28;19997;-63
2023/01/17 03:50:53;;;;;;;;;;;;;;;;;;4999268;28;19960;-62
2023/01/17 03:53:21;;;;;;;;;;;;;;;;;;4974053;28;20840;-62
2023/01/17 03:55:46;;;;;;;;;;;;;;;;;;4965510;28;19936;-63
2023/01/17 04:01:28;;;;;;;;;;;;;;;;;;4983602;28;20383;-63
2023/01/17 04:03:54;;;;;;;;;;;;;;;;;;4966986;28;20058;-63
2023/01/17 04:06:21;;;;;;;;;;;;;;;;;;4974465;28;20022;-63
2023/01/17 04:08:47;;;;;;;;;;;;;;;;;;4959887;28;20001;-63
2023/01/17 04:11:12;;;;;;;;;;;;;;;;;;4962420;28;20047;-64
2023/01/17 04:13:39;;;;;;;;;;;;;;;;;;4983826;28;20017;-63
2023/01/17 04:16:04;;;;;;;;;;;;;;;;;;4972470;28;19925;-65
2023/01/17 04:18:35;;;;;;;;;;;;;;;;;;4999227;28;20204;-64
2023/01/17 04:21:00;;;;;;;;;;;;;;;;;;4998413;28;19980;-63
2023/01/17 04:23:25;;;;;;;;;;;;;;;;;;4967508;28;19925;-64
2023/01/17 04:25:50;;;;;;;;;;;;;;;;;;4957863;28;20576;-64
2023/01/17 04:28:16;;;;;;;;;;;;;;;;;;4984376;28;19951;-65
2023/01/17 04:30:41;;;;;;;;;;;;;;;;;;4982961;28;20020;-64
2023/01/17 04:33:06;;;;;;;;;;;;;;;;;;4983314;28;19921;-63
2023/01/17 04:35:34;;;;;;;;;;;;;;;;;;4984100;28;20685;-63
2023/01/17 04:38:00;;;;;;;;;;;;;;;;;;4966289;28;19917;-63
2023/01/17 04:40:25;;;;;;;;;;;;;;;;;;4981462;28;19922;-64
2023/01/17 04:42:53;;;;;;;;;;;;;;;;;;4981856;28;19952;-63
2023/01/17 04:45:18;;;;;;;;;;;;;;;;;;4953597;28;20528;-65
2023/01/17 04:47:44;;;;;;;;;;;;;;;;;;4974702;28;19968;-64
2023/01/17 04:50:09;;;;;;;;;;;;;;;;;;4983101;28;19924;-64
2023/01/17 04:52:37;;;;;;;;;;;;;;;;;;4966865;28;20289;-64
2023/01/17 04:55:04;;;;;;;;;;;;;;;;;;4958738;28;19922;-64
2023/01/17 04:57:32;;;;;;;;;;;;;;;;;;4983090;28;19921;-63
2023/01/17 05:00:03;;;;;;;;;;;;;;;;;;4965901;28;19949;-65
2023/01/17 05:02:28;;;;;;;;;;;;;;;;;;4961716;28;19917;-64
2023/01/17 05:04:53;;;;;;;;;;;;;;;;;;4984366;28;20387;-63
2023/01/17 05:07:19;;;;;;;;;;;;;;;;;;4981449;28;19917;-64
2023/01/17 05:09:44;;;;;;;;;;;;;;;;;;4984209;28;19922;-65
2023/01/17 05:12:12;;;;;;;;;;;;;;;;;;4956447;28;20363;-65
2023/01/17 05:14:39;;;;;;;;;;;;;;;;;;4969846;28;19979;-65
2023/01/17 05:17:06;;;;;;;;;;;;;;;;;;4979713;28;20179;-66
2023/01/17 05:19:34;;;;;;;;;;;;;;;;;;4974079;28;20332;-66
2023/01/17 05:22:02;;;;;;;;;;;;;;;;;;4983521;28;19921;-65
2023/01/17 05:24:27;;;;;;;;;;;;;;;;;;4982584;28;19932;-66
2023/01/17 05:26:55;;;;;;;;;;;;;;;;;;4982621;28;19918;-65
2023/01/17 05:29:22;;;;;;;;;;;;;;;;;;4973068;28;19932;-65
2023/01/17 05:31:48;;;;;;;;;;;;;;;;;;4982963;28;19936;-66
2023/01/17 05:34:13;;;;;;;;;;;;;;;;;;4973047;28;19922;-66
2023/01/17 05:36:41;;;;;;;;;;;;;;;;;;4966746;28;20008;-66
2023/01/17 05:39:06;;;;;;;;;;;;;;;;;;4973804;28;19922;-65
2023/01/17 05:41:32;;;;;;;;;;;;;;;;;;4956187;28;19926;-65
2023/01/17 05:43:57;;;;;;;;;;;;;;;;;;4982249;28;19932;-66
2023/01/17 05:46:22;;;;;;;;;;;;;;;;;;4978150;28;20300;-66
2023/01/17 05:48:47;;;;;;;;;;;;;;;;;;4997425;28;20034;-68
2023/01/17 05:51:15;;;;;;;;;;;;;;;;;;4949464;28;20113;-68
2023/01/17 05:53:41;;;;;;;;;;;;;;;;;;4978634;28;20280;-69
2023/01/17 05:56:11;;;;;;;;;;;;;;;;;;4965365;28;20007;-69
2023/01/17 05:58:36;;;;;;;;;;;;;;;;;;4979569;28;20079;-69
2023/01/17 06:01:01;;;;;;;;;;;;;;;;;;4957786;28;20028;-68
2023/01/17 06:03:27;;;;;;;;;;;;;;;;;;4956457;28;19925;-68
2023/01/17 06:05:52;;;;;;;;;;;;;;;;;;4953696;28;20150;-69
2023/01/17 06:08:22;;;;;;;;;;;;;;;;;;4972984;28;20965;-69
2023/01/17 06:10:47;;;;;;;;;;;;;;;;;;4961304;28;20084;-68
2023/01/17 06:13:19;;;;;;;;;;;;;;;;;;4974872;28;20398;-68
2023/01/17 06:15:44;;;;;;;;;;;;;;;;;;4975292;28;20375;-70
2023/01/17 06:18:14;;;;;;;;;;;;;;;;;;4955817;28;20263;-69
2023/01/17 06:20:41;;;;;;;;;;;;;;;;;;4986578;28;19928;-69
2023/01/17 06:23:06;;;;;;;;;;;;;;;;;;4958608;28;19918;-68
2023/01/17 06:25:31;;;;;;;;;;;;;;;;;;4981873;28;20058;-68
2023/01/17 06:27:59;;;;;;;;;;;;;;;;;;4975766;28;20415;-69
2023/01/17 06:30:29;;;;;;;;;;;;;;;;;;4976176;28;19929;-68
2023/01/17 06:32:54;;;;;;;;;;;;;;;;;;4986312;28;19928;-68
2023/01/17 06:35:22;;;;;;;;;;;;;;;;;;4970030;28;21477;-67
2023/01/17 06:37:51;;;;;;;;;;;;;;;;;;4987467;28;20008;-68
2023/01/17 06:40:16;;;;;;;;;;;;;;;;;;4966160;28;19917;-69
2023/01/17 06:42:44;;;;;;;;;;;;;;;;;;4999458;28;19971;-67
2023/01/17 06:45:12;;;;;;;;;;;;;;;;;;4967176;28;20000;-67
2023/01/17 06:47:38;;;;;;;;;;;;;;;;;;5000143;28;20394;-68
2023/01/17 06:50:08;;;;;;;;;;;;;;;;;;4955323;28;20799;-68
2023/01/17 06:52:33;;;;;;;;;;;;;;;;;;4986914;28;19932;-69
2023/01/17 06:55:03;;;;;;;;;;;;;;;;;;4986150;28;19980;-69
2023/01/17 06:57:29;;;;;;;;;;;;;;;;;;4981679;28;19921;-68
2023/01/17 06:59:54;;;;;;;;;;;;;;;;;;4969466;28;20365;-68
2023/01/17 07:02:19;;;;;;;;;;;;;;;;;;4959505;28;20301;-69
2023/01/17 07:04:47;;;;;;;;;;;;;;;;;;5001452;28;19925;-68
2023/01/17 07:07:12;;;;;;;;;;;;;;;;;;5001479;28;20484;-67
2023/01/17 07:09:37;;;;;;;;;;;;;;;;;;4983521;28;20051;-67
2023/01/17 07:12:02;;;;;;;;;;;;;;;;;;4985883;28;19967;-68
2023/01/17 07:14:30;;;;;;;;;;;;;;;;;;4953002;28;20017;-66
2023/01/17 07:16:58;;;;;;;;;;;;;;;;;;4953801;28;19922;-67
2023/01/17 07:19:26;;;;;;;;;;;;;;;;;;4970399;28;19929;-67
2023/01/17 07:21:51;;;;;;;;;;;;;;;;;;4969522;28;20320;-67
2023/01/17 07:24:19;;;;;;;;;;;;;;;;;;4960959;28;19928;-67
2023/01/17 07:26:47;;;;;;;;;;;;;;;;;;4958959;28;20063;-67
2023/01/17 07:29:12;;;;;;;;;;;;;;;;;;4984073;28;20392;-66
2023/01/17 07:31:39;;;;;;;;;;;;;;;;;;4995194;28;20012;-67
2023/01/17 07:34:04;;;;;;;;;;;;;;;;;;4984674;28;20024;-66
2023/01/17 07:36:30;;;;;;;;;;;;;;;;;;4984532;28;20337;-67
2023/01/17 07:38:58;;;;;;;;;;;;;;;;;;4976191;28;19928;-67
2023/01/17 07:41:26;;;;;;;;;;;;;;;;;;4984894;28;20000;-66
2023/01/17 07:43:55;;;;;;;;;;;;;;;;;;4959063;28;19937;-66
2023/01/17 07:46:21;;;;;;;;;;;;;;;;;;4999488;28;19921;-66
2023/01/17 07:48:46;;;;;;;;;;;;;;;;;;4968160;28;20075;-66
2023/01/17 07:51:11;;;;;;;;;;;;;;;;;;4982969;28;19921;-66
2023/01/17 07:53:37;;;;;;;;;;;;;;;;;;4985895;28;20652;-66
2023/01/17 07:56:03;;;;;;;;;;;;;;;;;;4990771;28;20276;-67
2023/01/17 07:58:28;;;;;;;;;;;;;;;;;;4973440;28;19924;-66
2023/01/17 08:00:54;;;;;;;;;;;;;;;;;;4980632;28;19922;-65
2023/01/17 08:03:19;;;;;;;;;;;;;;;;;;4983851;28;19917;-66
2023/01/17 08:05:44;;;;;;;;;;;;;;;;;;4997370;28;19972;-66
2023/01/17 08:08:10;;;;;;;;;;;;;;;;;;4980233;28;20236;-65
2023/01/17 08:10:37;;;;;;;;;;;;;;;;;;4982522;28;19928;-65
2023/01/17 08:13:03;;;;;;;;;;;;;;;;;;4975122;28;21740;-66
2023/01/17 08:15:28;;;;;;;;;;;;;;;;;;4965590;28;19922;-66
2023/01/17 08:17:56;;;;;;;;;;;;;;;;;;4965556;28;20859;-66
2023/01/17 08:20:26;;;;;;;;;;;;;;;;;;4976136;28;21476;-65
2023/01/17 08:22:53;;;;;;;;;;;;;;;;;;4985040;28;22129;-66
2023/01/17 08:25:23;;;;;;;;;;;;;;;;;;4956098;28;20150;-66
2023/01/17 08:27:54;;;;;;;;;;;;;;;;;;4976020;28;19948;-66
2023/01/17 08:30:23;;;;;;;;;;;;;;;;;;4983725;28;20368;-65
2023/01/17 08:32:51;;;;;;;;;;;;;;;;;;4985210;28;19975;-66
2023/01/17 08:35:18;;;;;;;;;;;;;;;;;;4977413;28;19929;-66
2023/01/17 08:37:44;;;;;;;;;;;;;;;;;;4968867;28;19932;-63
2023/01/17 08:40:09;;;;;;;;;;;;;;;;;;4969190;28;19921;-60
2023/01/17 08:42:40;;;;;;;;;;;;;;;;;;4969171;28;20987;-61
2023/01/17 08:45:05;;;;;;;;;;;;;;;;;;4984318;28;19964;-60
2023/01/17 08:47:31;;;;;;;;;;;;;;;;;;4960197;28;19963;-62
2023/01/17 08:49:58;;;;;;;;;;;;;;;;;;4973866;28;19917;-62
2023/01/17 08:52:25;;;;;;;;;;;;;;;;;;4984325;28;19921;-62
2023/01/17 08:54:53;;;;;;;;;;;;;;;;;;4958118;28;20565;-63
2023/01/17 08:57:19;;;;;;;;;;;;;;;;;;4973282;28;20008;-63
2023/01/17 08:59:44;;;;;;;;;;;;;;;;;;4982329;28;20069;-64
2023/01/17 09:02:13;;;;;;;;;;;;;;;;;;4982889;28;20363;-63
2023/01/17 09:04:39;;;;;;;;;;;;;;;;;;4976082;28;20268;-63
2023/01/17 09:07:06;;;;;;;;;;;;;;;;;;4965171;28;19922;-63
2023/01/17 09:09:34;;;;;;;;;;;;;;;;;;4982220;28;20006;-63
2023/01/17 09:11:59;;;;;;;;;;;;;;;;;;4983445;28;19928;-63
2023/01/17 09:14:27;;;;;;;;;;;;;;;;;;4954188;28;20728;-62
2023/01/17 09:16:55;;;;;;;;;;;;;;;;;;4966402;28;22016;-63
2023/01/17 09:19:21;;;;;;;;;;;;;;;;;;4999650;28;19917;-62
2023/01/17 09:21:49;;;;;;;;;;;;;;;;;;4966417;28;19918;-63
2023/01/17 09:24:14;;;;;;;;;;;;;;;;;;4984023;28;19921;-63
2023/01/17 09:26:39;;;;;;;;;;;;;;;;;;4958913;28;20016;-63
2023/01/17 09:29:08;;;;;;;;;;;;;;;;;;4983680;28;20213;-63
2023/01/17 09:31:34;;;;;;;;;;;;;;;;;;4964399;28;20331;-64
2023/01/17 09:33:59;;;;;;;;;;;;;;;;;;4967153;28;19921;-63
2023/01/17 09:36:27;;;;;;;;;;;;;;;;;;4983890;28;19933;-61
2023/01/17 09:38:55;;;;;;;;;;;;;;;;;;4981484;28;20378;-64
2023/01/17 09:41:21;;;;;;;;;;;;;;;;;;4967110;28;19921;-63
2023/01/17 09:43:46;;;;;;;;;;;;;;;;;;4973748;28;19917;-62
2023/01/17 09:46:11;;;;;;;;;;;;;;;;;;4965726;28;20667;-63
2023/01/17 09:48:37;;;;;;;;;;;;;;;;;;4990126;28;19996;-63
2023/01/17 09:51:02;;;;;;;;;;;;;;;;;;4997491;28;19965;-62
2023/01/17 09:53:28;;;;;;;;;;;;;;;;;;4984479;28;19918;-63
2023/01/17 09:55:54;;;;;;;;;;;;;;;;;;4981823;28;19925;-63
2023/01/17 09:58:20;;;;;;;;;;;;;;;;;;4957070;28;19925;-63
2023/01/17 10:00:48;;;;;;;;;;;;;;;;;;4972274;28;19926;-63
2023/01/17 10:03:17;;;;;;;;;;;;;;;;;;4983060;28;19972;-62
2023/01/17 10:05:42;;;;;;;;;;;;;;;;;;4966673;28;19921;-62
2023/01/17 10:08:10;;;;;;;;;;;;;;;;;;4987093;28;19917;-62
2023/01/17 10:10:35;;;;;;;;;;;;;;;;;;4982019;28;20072;-63
2023/01/17 10:13:03;;;;;;;;;;;;;;;;;;4963095;28;19921;-63
2023/01/17 10:15:33;;;;;;;;;;;;;;;;;;4941380;28;19983;-64
2023/01/17 10:18:02;;;;;;;;;;;;;;;;;;4972538;28;20416;-63
2023/01/17 10:20:32;;;;;;;;;;;;;;;;;;4959174;28;19927;-62
2023/01/17 10:23:02;;;;;;;;;;;;;;;;;;4983365;28;19917;-63
2023/01/17 10:25:28;;;;;;;;;;;;;;;;;;4982481;28;19949;-63
2023/01/17 10:27:53;;;;;;;;;;;;;;;;;;4981484;28;20535;-62
2023/01/17 10:30:18;;;;;;;;;;;;;;;;;;4982988;28;20012;-65
2023/01/17 10:32:46;;;;;;;;;;;;;;;;;;4982165;28;19918;-64
2023/01/17 10:35:11;;;;;;;;;;;;;;;;;;4974463;28;19956;-64
2023/01/17 10:37:39;;;;;;;;;;;;;;;;;;4997166;28;20506;-61
2023/01/17 10:40:06;;;;;;;;;;;;;;;;;;4965904;28;20020;-63
2023/01/17 10:42:32;;;;;;;;;;;;;;;;;;4996629;28;19929;-64
2023/01/17 10:44:57;;;;;;;;;;;;;;;;;;4972105;28;20494;-63
2023/01/17 10:47:26;;;;;;;;;;;;;;;;;;4966902;28;19926;-62
2023/01/17 10:49:52;;;;;;;;;;;;;;;;;;4965930;28;19938;-64
2023/01/17 10:52:20;;;;;;;;;;;;;;;;;;4982636;28;20679;-64
2023/01/17 10:54:46;;;;;;;;;;;;;;;;;;4988987;28;19925;-64
2023/01/17 10:57:11;;;;;;;;;;;;;;;;;;4972472;28;19921;-64
2023/01/17 10:59:37;;;;;;;;;;;;;;;;;;4983665;28;20331;-64
2023/01/17 11:02:05;;;;;;;;;;;;;;;;;;4950778;28;20001;-63
2023/01/17 11:04:31;;;;;;;;;;;;;;;;;;4972113;28;19972;-64
2023/01/17 11:06:56;;;;;;;;;;;;;;;;;;4975893;28;19928;-64
2023/01/17 11:09:21;;;;;;;;;;;;;;;;;;4959443;28;20444;-63
2023/01/17 11:11:50;;;;;;;;;;;;;;;;;;4968297;28;19922;-64
2023/01/17 11:14:15;;;;;;;;;;;;;;;;;;4986354;28;19921;-64
2023/01/17 11:16:43;;;;;;;;;;;;;;;;;;4985669;28;19968;-64
2023/01/17 11:19:09;;;;;;;;;;;;;;;;;;4984321;28;19921;-63
2023/01/17 11:21:34;;;;;;;;;;;;;;;;;;4976717;28;19940;-65
2023/01/17 11:24:00;;;;;;;;;;;;;;;;;;4985847;28;19960;-63
2023/01/17 11:26:26;;;;;;;;;;;;;;;;;;5001330;28;19924;-62
2023/01/17 11:28:51;;;;;;;;;;;;;;;;;;4983631;28;20055;-64
2023/01/17 11:31:17;;;;;;;;;;;;;;;;;;4972876;28;19953;-63
2023/01/17 11:33:55;;;;;;;;;;;;;;;;;;4973040;28;19928;-65
2023/01/17 11:36:20;;;;;;;;;;;;;;;;;;4963080;28;19972;-64
2023/01/17 11:38:46;;;;;;;;;;;;;;;;;;4964473;28;20368;-62
2023/01/17 11:41:20;;;;;;;;;;;;;;;;;;4964126;28;19942;-63
2023/01/17 11:43:45;;;;;;;;;;;;;;;;;;4966894;28;20133;-64
2023/01/17 11:46:11;;;;;;;;;;;;;;;;;;4954739;28;20431;-64
2023/01/17 11:48:36;;;;;;;;;;;;;;;;;;4980845;28;20055;-64
2023/01/17 11:51:01;;;;;;;;;;;;;;;;;;4967481;28;20324;-63
2023/01/17 11:53:27;;;;;;;;;;;;;;;;;;4965488;28;20068;-63
2023/01/17 11:55:53;;;;;;;;;;;;;;;;;;4980594;28;19932;-64
2023/01/17 11:58:18;;;;;;;;;;;;;;;;;;4964972;28;19933;-65
2023/01/17 12:00:44;;;;;;;;;;;;;;;;;;4954848;28;19960;-64
2023/01/17 12:03:10;;;;;;;;;;;;;;;;;;4948552;28;19918;-64
2023/01/17 12:05:36;;;;;;;;;;;;;;;;;;4964164;28;19917;-63
2023/01/17 12:08:01;;;;;;;;;;;;;;;;;;4964074;28;21057;-63
2023/01/17 12:10:29;;;;;;;;;;;;;;;;;;4962036;28;19968;-63
2023/01/17 12:15:39;;;;;;;;;;;;;;;;;;4964994;28;19994;-62
2023/01/17 12:18:05;;;;;;;;;;;;;;;;;;4979650;28;19929;-60
2023/01/17 12:20:30;;;;;;;;;;;;;;;;;;4965469;28;20371;-64
2023/01/17 12:22:56;;;;;;;;;;;;;;;;;;4965827;28;20280;-62
2023/01/17 12:25:22;;;;;;;;;;;;;;;;;;4962787;28;19955;-63
2023/01/17 12:27:47;;;;;;;;;;;;;;;;;;4965049;28;19925;-63
2023/01/17 12:30:13;;;;;;;;;;;;;;;;;;4955661;28;20757;-63
2023/01/17 12:32:38;;;;;;;;;;;;;;;;;;4964427;28;19921;-63
2023/01/17 12:35:03;;;;;;;;;;;;;;;;;;4963061;28;20295;-62
2023/01/17 12:37:33;;;;;;;;;;;;;;;;;;4965023;28;19918;-63
2023/01/17 12:39:59;;;;;;;;;;;;;;;;;;4970234;28;19929;-63
2023/01/17 12:42:24;;;;;;;;;;;;;;;;;;4979455;28;19957;-64
2023/01/17 12:44:50;;;;;;;;;;;;;;;;;;4963612;28;19962;-60
2023/01/17 12:47:15;;;;;;;;;;;;;;;;;;4979626;28;19944;-61
2023/01/17 12:49:41;;;;;;;;;;;;;;;;;;4963409;28;20516;-63
2023/01/17 12:52:06;;;;;;;;;;;;;;;;;;4972564;28;20325;-61
2023/01/17 12:54:34;;;;;;;;;;;;;;;;;;4979025;28;19982;-63
2023/01/17 12:56:59;;;;;;;;;;;;;;;;;;4962818;28;20854;-62
2023/01/17 12:59:27;;;;;;;;;;;;;;;;;;4978845;28;19944;-63
2023/01/17 13:01:56;;;;;;;;;;;;;;;;;;4965346;28;19962;-63
2023/01/17 13:04:21;;;;;;;;;;;;;;;;;;4958735;28;19976;-63
2023/01/17 13:06:46;;;;;;;;;;;;;;;;;;4963575;28;19918;-62
2023/01/17 13:09:11;;;;;;;;;;;;;;;;;;4943098;28;19922;-63
2023/01/17 13:11:39;;;;;;;;;;;;;;;;;;4964291;28;20176;-62
2023/01/17 13:14:05;;;;;;;;;;;;;;;;;;4961755;28;20802;-60
2023/01/17 13:16:30;;;;;;;;;;;;;;;;;;4962965;28;19926;-60
2023/01/17 13:18:57;;;;;;;;;;;;;;;;;;4961621;28;19922;-61
2023/01/17 13:21:23;;;;;;;;;;;;;;;;;;4964143;28;19923;-62
2023/01/17 13:23:49;;;;;;;;;;;;;;;;;;4962915;28;19933;-62
2023/01/17 13:26:14;;;;;;;;;;;;;;;;;;4962265;28;20004;-63
2023/01/17 13:28:42;;;;;;;;;;;;;;;;;;4977941;28;19931;-63
2023/01/17 13:31:11;;;;;;;;;;;;;;;;;;4977172;28;20020;-62
2023/01/17 13:33:36;;;;;;;;;;;;;;;;;;4964089;28;20348;-65
2023/01/17 13:36:01;;;;;;;;;;;;;;;;;;4954598;28;20276;-63
2023/01/17 13:38:28;;;;;;;;;;;;;;;;;;4981534;28;19945;-64
2023/01/17 13:40:53;;;;;;;;;;;;;;;;;;4967338;28;19928;-66
2023/01/17 13:43:18;;;;;;;;;;;;;;;;;;4961819;28;20157;-65
2023/01/17 13:45:44;;;;;;;;;;;;;;;;;;4987616;28;20272;-65
2023/01/17 13:48:09;;;;;;;;;;;;;;;;;;4964836;28;20303;-67
2023/01/17 13:50:37;;;;;;;;;;;;;;;;;;4999195;28;19917;-63
2023/01/17 13:53:05;;;;;;;;;;;;;;;;;;4972552;28;19918;-67
2023/01/17 13:55:30;;;;;;;;;;;;;;;;;;4983357;28;20384;-66
2023/01/17 13:57:58;;;;;;;;;;;;;;;;;;4959599;28;20062;-65
2023/01/17 14:00:24;;;;;;;;;;;;;;;;;;4980663;28;20556;-65
2023/01/17 14:02:49;;;;;;;;;;;;;;;;;;4963738;28;19957;-65
2023/01/17 14:05:16;;;;;;;;;;;;;;;;;;4955528;28;20021;-65
2023/01/17 14:07:41;;;;;;;;;;;;;;;;;;4982164;28;21500;-65
2023/01/17 14:10:06;;;;;;;;;;;;;;;;;;4955388;28;19925;-64
2023/01/17 14:12:34;;;;;;;;;;;;;;;;;;4983283;28;20089;-66
2023/01/17 14:15:04;;;;;;;;;;;;;;;;;;4972929;28;20428;-67
2023/01/17 14:17:29;;;;;;;;;;;;;;;;;;4956846;28;20031;-63
2023/01/17 14:19:59;;;;;;;;;;;;;;;;;;4972578;28;20020;-65
2023/01/17 14:22:25;;;;;;;;;;;;;;;;;;4950325;28;19917;-65
2023/01/17 14:24:50;;;;;;;;;;;;;;;;;;4964184;28;20003;-67
2023/01/17 14:27:16;;;;;;;;;;;;;;;;;;4974209;28;19940;-68
2023/01/17 14:29:41;;;;;;;;;;;;;;;;;;4966324;28;19925;-65
2023/01/17 14:32:07;;;;;;;;;;;;;;;;;;4973477;28;20325;-66
2023/01/17 14:34:32;;;;;;;;;;;;;;;;;;4964920;28;20008;-64
2023/01/17 14:37:00;;;;;;;;;;;;;;;;;;4963641;28;19929;-65
2023/01/17 14:39:28;;;;;;;;;;;;;;;;;;4970581;28;19922;-66
2023/01/17 14:41:56;;;;;;;;;;;;;;;;;;4983997;28;19917;-64
2023/01/17 14:44:21;;;;;;;;;;;;;;;;;;4988067;28;20467;-67
2023/01/17 14:46:47;;;;;;;;;;;;;;;;;;4985827;28;19964;-64
2023/01/17 14:49:12;;;;;;;;;;;;;;;;;;4985048;28;19965;-66
2023/01/17 14:51:38;;;;;;;;;;;;;;;;;;4984262;28;19917;-68
2023/01/17 14:54:06;;;;;;;;;;;;;;;;;;4985203;28;19922;-66
2023/01/17 14:56:31;;;;;;;;;;;;;;;;;;4966625;28;20400;-67
2023/01/17 14:58:57;;;;;;;;;;;;;;;;;;4986956;28;19933;-67
2023/01/17 15:01:22;;;;;;;;;;;;;;;;;;4967344;28;20016;-66
2023/01/17 15:03:48;;;;;;;;;;;;;;;;;;4967365;28;20570;-66
2023/01/17 15:06:13;;;;;;;;;;;;;;;;;;4966591;28;19957;-64
2023/01/17 15:08:38;;;;;;;;;;;;;;;;;;4985297;28;20136;-66
2023/01/17 15:11:04;;;;;;;;;;;;;;;;;;4970063;28;20862;-67
2023/01/17 15:13:29;;;;;;;;;;;;;;;;;;4967841;28;19918;-65
2023/01/17 15:15:57;;;;;;;;;;;;;;;;;;4985595;28;20551;-65
2023/01/17 15:18:26;;;;;;;;;;;;;;;;;;4975658;28;20367;-65
2023/01/17 15:20:51;;;;;;;;;;;;;;;;;;4969947;28;19929;-65
2023/01/17 15:23:19;;;;;;;;;;;;;;;;;;4960286;28;20372;-66
2023/01/17 15:25:47;;;;;;;;;;;;;;;;;;4985001;28;20622;-66
2023/01/17 15:28:12;;;;;;;;;;;;;;;;;;4970018;28;20128;-66
2023/01/17 15:30:40;;;;;;;;;;;;;;;;;;4984906;28;19925;-68
2023/01/17 15:33:05;;;;;;;;;;;;;;;;;;4975966;28;19922;-67
2023/01/17 15:35:33;;;;;;;;;;;;;;;;;;4974426;28;19925;-66
2023/01/17 15:38:00;;;;;;;;;;;;;;;;;;4984537;28;19928;-65
2023/01/17 15:40:30;;;;;;;;;;;;;;;;;;4967737;28;20006;-65
2023/01/17 15:43:01;;;;;;;;;;;;;;;;;;4976121;28;19922;-66
2023/01/17 15:45:32;;;;;;;;;;;;;;;;;;4961022;28;20001;-66
2023/01/17 15:47:58;;;;;;;;;;;;;;;;;;4968350;28;19917;-66
2023/01/17 15:50:25;;;;;;;;;;;;;;;;;;4966492;28;19922;-66
2023/01/17 15:52:50;;;;;;;;;;;;;;;;;;4976742;28;19967;-66
2023/01/17 15:55:16;;;;;;;;;;;;;;;;;;4959572;28;19929;-65
2023/01/17 15:57:42;;;;;;;;;;;;;;;;;;4983270;28;19972;-66
2023/01/17 16:00:08;;;;;;;;;;;;;;;;;;4986224;28;20502;-66
2023/01/17 16:02:36;;;;;;;;;;;;;;;;;;4974211;28;19925;-65
2023/01/17 16:05:03;;;;;;;;;;;;;;;;;;4965586;28;19928;-65
2023/01/17 16:07:32;;;;;;;;;;;;;;;;;;4984009;28;19921;-65
2023/01/17 16:09:58;;;;;;;;;;;;;;;;;;4969467;28;19917;-64
2023/01/17 16:12:24;;;;;;;;;;;;;;;;;;4966259;28;20557;-65
2023/01/17 16:14:49;;;;;;;;;;;;;;;;;;4985156;28;20296;-65
2023/01/17 16:17:14;;;;;;;;;;;;;;;;;;4998939;28;19926;-65
2023/01/17 16:19:44;;;;;;;;;;;;;;;;;;4976790;28;19996;-65
2023/01/17 16:22:12;;;;;;;;;;;;;;;;;;4968188;28;19975;-65
2023/01/17 16:24:43;;;;;;;;;;;;;;;;;;4975453;28;19925;-65
2023/01/17 16:27:10;;;;;;;;;;;;;;;;;;4984333;28;19921;-65
2023/01/17 16:29:36;;;;;;;;;;;;;;;;;;4999122;28;19921;-65
2023/01/17 16:32:07;;;;;;;;;;;;;;;;;;4984365;28;20285;-66
2023/01/17 16:34:32;;;;;;;;;;;;;;;;;;4966323;28;19922;-66
2023/01/17 16:36:58;;;;;;;;;;;;;;;;;;4974473;28;19942;-65
2023/01/17 16:39:23;;;;;;;;;;;;;;;;;;4985260;28;19921;-65
2023/01/17 16:41:51;;;;;;;;;;;;;;;;;;4966081;28;19965;-66
2023/01/17 16:44:21;;;;;;;;;;;;;;;;;;4976529;28;19947;-64
2023/01/17 16:46:46;;;;;;;;;;;;;;;;;;4969374;28;20117;-64
2023/01/17 16:49:12;;;;;;;;;;;;;;;;;;4959130;28;20030;-66
2023/01/17 16:51:56;;;;;;;;;;;;;;;;;;4997138;28;20153;-65
2023/01/17 16:54:24;;;;;;;;;;;;;;;;;;4984682;28;19921;-64
2023/01/17 16:56:50;;;;;;;;;;;;;;;;;;4982608;28;20321;-65
2023/01/17 16:59:16;;;;;;;;;;;;;;;;;;4967553;28;19922;-64
2023/01/17 17:01:41;;;;;;;;;;;;;;;;;;4988917;28;20300;-64
2023/01/17 17:04:06;;;;;;;;;;;;;;;;;;4998649;28;19962;-64
2023/01/17 17:06:34;;;;;;;;;;;;;;;;;;4963179;28;20328;-64
2023/01/17 17:09:02;;;;;;;;;;;;;;;;;;4953222;28;19928;-65
2023/01/17 17:11:29;;;;;;;;;;;;;;;;;;4974068;28;19921;-64
2023/01/17 17:13:57;;;;;;;;;;;;;;;;;;4983529;28;20493;-65
2023/01/17 17:16:22;;;;;;;;;;;;;;;;;;4984700;28;20213;-64
2023/01/17 17:18:48;;;;;;;;;;;;;;;;;;4953331;28;20361;-65
2023/01/17 17:21:15;;;;;;;;;;;;;;;;;;4984242;28;19921;-65
2023/01/17 17:23:40;;;;;;;;;;;;;;;;;;4960370;28;20291;-65
2023/01/17 17:26:08;;;;;;;;;;;;;;;;;;4973491;28;19929;-65
2023/01/17 17:28:36;;;;;;;;;;;;;;;;;;4983425;28;19922;-63
2023/01/17 17:31:17;;;;;;;;;;;;;;;;;;4997119;28;19957;-64
2023/01/17 17:33:42;;;;;;;;;;;;;;;;;;4974878;28;20882;-65
2023/01/17 17:36:08;;;;;;;;;;;;;;;;;;4995336;28;19936;-63
2023/01/17 17:38:36;;;;;;;;;;;;;;;;;;4974906;28;20445;-64
2023/01/17 17:41:02;;;;;;;;;;;;;;;;;;4984668;28;19918;-64
2023/01/17 17:43:27;;;;;;;;;;;;;;;;;;4983304;28;20261;-63
2023/01/17 17:45:53;;;;;;;;;;;;;;;;;;4989102;28;20095;-63
2023/01/17 17:48:19;;;;;;;;;;;;;;;;;;4983440;28;19921;-64
2023/01/17 17:50:49;;;;;;;;;;;;;;;;;;4974138;28;20371;-64
2023/01/17 17:53:14;;;;;;;;;;;;;;;;;;4980330;28;19928;-62
2023/01/17 17:55:42;;;;;;;;;;;;;;;;;;4966102;28;19925;-64
2023/01/17 17:58:07;;;;;;;;;;;;;;;;;;4981560;28;20253;-64
2023/01/17 18:00:33;;;;;;;;;;;;;;;;;;4966418;28;20192;-64
2023/01/17 18:03:03;;;;;;;;;;;;;;;;;;4975114;28;19922;-63
2023/01/17 18:05:31;;;;;;;;;;;;;;;;;;4962536;28;21530;-63
2023/01/17 18:07:59;;;;;;;;;;;;;;;;;;4972466;28;19944;-63
2023/01/17 18:10:26;;;;;;;;;;;;;;;;;;4965598;28;19956;-63